sensor_id;sensor_type;location;lat;lon;timestamp;temperature;humidity
25668;DHT22;18003;-33.830;151.202;2023-02-11T00:00:22;24.50;99.90
25668;DHT22;18003;-33.830;151.202;2023-02-11T00:02:42;24.40;99.90
25668;DHT22;18003;-33.830;151.202;2023-02-11T00:05:12;24.40;99.90
25668;DHT22;18003;-33.830;151.202;2023-02-11T00:07:42;24.40;99.90
25668;DHT22;18003;-33.830;151.202;2023-02-11T00:10:12;24.40;99.90
25668;DHT22;18003;-33.830;151.202;2023-02-11T00:12:42;24.40;99.90
25668;DHT22;18003;-33.830;151.202;2023-02-11T00:15:12;24.50;99.90
25668;DHT22;18003;-33.830;151.202;2023-02-11T00:17:42;24.60;99.90
25668;DHT22;18003;-33.830;151.202;2023-02-11T00:20:14;24.60;99.90
25668;DHT22;18003;-33.830;151.202;2023-02-11T00:22:44;24.80;99.90
25668;DHT22;18003;-33.830;151.202;2023-02-11T00:25:14;24.80;99.90
25668;DHT22;18003;-33.830;151.202;2023-02-11T00:27:44;24.80;99.90
25668;DHT22;18003;-33.830;151.202;2023-02-11T00:30:14;24.90;99.90
25668;DHT22;18003;-33.830;151.202;2023-02-11T00:32:44;24.90;99.90
25668;DHT22;18003;-33.830;151.202;2023-02-11T00:35:15;24.90;99.90
25668;DHT22;18003;-33.830;151.202;2023-02-11T00:37:45;25.10;99.90
25668;DHT22;18003;-33.830;151.202;2023-02-11T00:40:15;25.30;99.90
25668;DHT22;18003;-33.830;151.202;2023-02-11T00:42:45;25.30;99.90
25668;DHT22;18003;-33.830;151.202;2023-02-11T00:45:15;25.20;99.90
25668;DHT22;18003;-33.830;151.202;2023-02-11T00:47:45;25.20;99.90
25668;DHT22;18003;-33.830;151.202;2023-02-11T00:50:16;25.50;99.90
25668;DHT22;18003;-33.830;151.202;2023-02-11T00:52:46;25.80;99.90
25668;DHT22;18003;-33.830;151.202;2023-02-11T00:55:16;26.00;99.90
25668;DHT22;18003;-33.830;151.202;2023-02-11T00:57:46;26.00;99.90
25668;DHT22;18003;-33.830;151.202;2023-02-11T01:00:17;25.90;99.90
25668;DHT22;18003;-33.830;151.202;2023-02-11T01:02:47;26.10;99.90
25668;DHT22;18003;-33.830;151.202;2023-02-11T01:05:17;26.30;99.90
25668;DHT22;18003;-33.830;151.202;2023-02-11T01:07:47;26.50;99.90
25668;DHT22;18003;-33.830;151.202;2023-02-11T01:10:18;26.40;99.90
25668;DHT22;18003;-33.830;151.202;2023-02-11T01:12:47;26.40;99.90
25668;DHT22;18003;-33.830;151.202;2023-02-11T01:15:19;26.50;99.90
25668;DHT22;18003;-33.830;151.202;2023-02-11T01:17:47;26.60;99.90
25668;DHT22;18003;-33.830;151.202;2023-02-11T01:20:19;26.80;99.90
25668;DHT22;18003;-33.830;151.202;2023-02-11T01:22:50;26.80;99.90
25668;DHT22;18003;-33.830;151.202;2023-02-11T01:25:20;26.80;99.90
25668;DHT22;18003;-33.830;151.202;2023-02-11T01:27:50;26.80;99.90
25668;DHT22;18003;-33.830;151.202;2023-02-11T01:30:20;27.10;99.90
25668;DHT22;18003;-33.830;151.202;2023-02-11T01:32:50;27.30;99.90
25668;DHT22;18003;-33.830;151.202;2023-02-11T01:35:20;27.20;99.90
25668;DHT22;18003;-33.830;151.202;2023-02-11T01:37:50;27.10;99.90
25668;DHT22;18003;-33.830;151.202;2023-02-11T01:40:20;27.00;99.90
25668;DHT22;18003;-33.830;151.202;2023-02-11T01:42:50;27.00;99.90
25668;DHT22;18003;-33.830;151.202;2023-02-11T01:45:52;27.20;99.90
25668;DHT22;18003;-33.830;151.202;2023-02-11T01:48:28;27.00;99.90
25668;DHT22;18003;-33.830;151.202;2023-02-11T01:51:05;27.20;99.90
25668;DHT22;18003;-33.830;151.202;2023-02-11T01:53:30;27.20;99.90
25668;DHT22;18003;-33.830;151.202;2023-02-11T01:56:18;27.20;99.90
25668;DHT22;18003;-33.830;151.202;2023-02-11T01:59:10;27.60;99.90
25668;DHT22;18003;-33.830;151.202;2023-02-11T02:01:39;27.40;99.90
25668;DHT22;18003;-33.830;151.202;2023-02-11T02:04:10;27.40;99.90
25668;DHT22;18003;-33.830;151.202;2023-02-11T02:06:43;27.40;99.90
25668;DHT22;18003;-33.830;151.202;2023-02-11T02:09:19;27.40;99.90
25668;DHT22;18003;-33.830;151.202;2023-02-11T02:11:47;27.50;99.90
25668;DHT22;18003;-33.830;151.202;2023-02-11T02:14:18;27.40;99.90
25668;DHT22;18003;-33.830;151.202;2023-02-11T02:16:48;27.50;99.90
25668;DHT22;18003;-33.830;151.202;2023-02-11T02:25:28;27.70;99.90
25668;DHT22;18003;-33.830;151.202;2023-02-11T02:27:59;27.70;99.90
25668;DHT22;18003;-33.830;151.202;2023-02-11T02:30:42;27.60;99.90
25668;DHT22;18003;-33.830;151.202;2023-02-11T02:36:27;27.80;99.90
25668;DHT22;18003;-33.830;151.202;2023-02-11T02:39:13;27.70;99.90
25668;DHT22;18003;-33.830;151.202;2023-02-11T02:41:43;27.70;99.90
25668;DHT22;18003;-33.830;151.202;2023-02-11T02:44:12;27.70;99.90
25668;DHT22;18003;-33.830;151.202;2023-02-11T02:46:42;28.10;99.90
25668;DHT22;18003;-33.830;151.202;2023-02-11T02:49:15;28.70;99.90
25668;DHT22;18003;-33.830;151.202;2023-02-11T03:03:24;29.40;99.90
25668;DHT22;18003;-33.830;151.202;2023-02-11T03:06:12;29.60;99.90
25668;DHT22;18003;-33.830;151.202;2023-02-11T03:11:17;29.30;99.90
25668;DHT22;18003;-33.830;151.202;2023-02-11T03:13:49;29.30;99.90
25668;DHT22;18003;-33.830;151.202;2023-02-11T03:16:18;29.50;99.90
25668;DHT22;18003;-33.830;151.202;2023-02-11T03:18:51;29.70;99.90
25668;DHT22;18003;-33.830;151.202;2023-02-11T03:21:20;29.70;99.90
25668;DHT22;18003;-33.830;151.202;2023-02-11T03:23:55;29.40;99.90
25668;DHT22;18003;-33.830;151.202;2023-02-11T03:40:29;29.60;99.90
25668;DHT22;18003;-33.830;151.202;2023-02-11T03:43:06;29.70;99.90
25668;DHT22;18003;-33.830;151.202;2023-02-11T03:45:32;29.70;99.90
25668;DHT22;18003;-33.830;151.202;2023-02-11T03:48:04;29.40;99.90
25668;DHT22;18003;-33.830;151.202;2023-02-11T03:50:35;29.30;99.90
25668;DHT22;18003;-33.830;151.202;2023-02-11T03:53:06;29.50;99.90
25668;DHT22;18003;-33.830;151.202;2023-02-11T03:55:37;29.60;99.90
25668;DHT22;18003;-33.830;151.202;2023-02-11T03:58:09;29.60;99.90
25668;DHT22;18003;-33.830;151.202;2023-02-11T04:00:40;29.40;99.90
25668;DHT22;18003;-33.830;151.202;2023-02-11T04:03:11;29.50;99.90
25668;DHT22;18003;-33.830;151.202;2023-02-11T04:05:41;29.60;99.90
25668;DHT22;18003;-33.830;151.202;2023-02-11T04:08:11;29.80;99.90
25668;DHT22;18003;-33.830;151.202;2023-02-11T04:10:41;29.80;99.90
25668;DHT22;18003;-33.830;151.202;2023-02-11T04:13:11;29.50;99.90
25668;DHT22;18003;-33.830;151.202;2023-02-11T04:15:42;29.60;99.90
25668;DHT22;18003;-33.830;151.202;2023-02-11T04:18:12;29.70;99.90
25668;DHT22;18003;-33.830;151.202;2023-02-11T04:20:42;29.90;99.90
25668;DHT22;18003;-33.830;151.202;2023-02-11T04:23:12;29.70;99.90
25668;DHT22;18003;-33.830;151.202;2023-02-11T04:25:42;29.40;99.90
25668;DHT22;18003;-33.830;151.202;2023-02-11T04:28:13;29.40;99.90
25668;DHT22;18003;-33.830;151.202;2023-02-11T04:30:43;29.70;99.90
25668;DHT22;18003;-33.830;151.202;2023-02-11T04:33:13;29.70;99.90
25668;DHT22;18003;-33.830;151.202;2023-02-11T04:35:43;29.60;99.90
25668;DHT22;18003;-33.830;151.202;2023-02-11T04:38:13;29.40;99.90
25668;DHT22;18003;-33.830;151.202;2023-02-11T04:40:44;29.60;99.90
25668;DHT22;18003;-33.830;151.202;2023-02-11T04:43:14;29.70;99.90
25668;DHT22;18003;-33.830;151.202;2023-02-11T04:45:43;29.70;99.90
25668;DHT22;18003;-33.830;151.202;2023-02-11T04:48:13;29.50;99.90
25668;DHT22;18003;-33.830;151.202;2023-02-11T04:50:43;29.40;99.90
25668;DHT22;18003;-33.830;151.202;2023-02-11T04:53:13;29.80;99.90
25668;DHT22;18003;-33.830;151.202;2023-02-11T04:55:43;29.90;99.90
25668;DHT22;18003;-33.830;151.202;2023-02-11T04:58:12;30.00;99.90
25668;DHT22;18003;-33.830;151.202;2023-02-11T05:00:43;29.80;99.90
25668;DHT22;18003;-33.830;151.202;2023-02-11T05:03:13;29.60;99.90
25668;DHT22;18003;-33.830;151.202;2023-02-11T05:05:43;29.80;99.90
25668;DHT22;18003;-33.830;151.202;2023-02-11T05:08:13;29.90;99.90
25668;DHT22;18003;-33.830;151.202;2023-02-11T05:10:48;30.00;99.90
25668;DHT22;18003;-33.830;151.202;2023-02-11T05:13:15;29.80;99.90
25668;DHT22;18003;-33.830;151.202;2023-02-11T05:15:45;29.80;99.90
25668;DHT22;18003;-33.830;151.202;2023-02-11T05:18:15;29.80;99.90
25668;DHT22;18003;-33.830;151.202;2023-02-11T05:20:45;29.90;99.90
25668;DHT22;18003;-33.830;151.202;2023-02-11T05:23:15;30.00;99.90
25668;DHT22;18003;-33.830;151.202;2023-02-11T05:25:45;29.60;99.90
25668;DHT22;18003;-33.830;151.202;2023-02-11T05:28:15;29.70;99.90
25668;DHT22;18003;-33.830;151.202;2023-02-11T05:30:46;29.80;99.90
25668;DHT22;18003;-33.830;151.202;2023-02-11T05:33:16;29.80;99.90
25668;DHT22;18003;-33.830;151.202;2023-02-11T05:35:46;29.80;99.90
25668;DHT22;18003;-33.830;151.202;2023-02-11T05:38:16;29.50;99.90
25668;DHT22;18003;-33.830;151.202;2023-02-11T05:40:46;29.60;99.90
25668;DHT22;18003;-33.830;151.202;2023-02-11T05:43:16;29.90;99.90
25668;DHT22;18003;-33.830;151.202;2023-02-11T05:45:46;29.90;99.90
25668;DHT22;18003;-33.830;151.202;2023-02-11T05:48:15;29.90;99.90
25668;DHT22;18003;-33.830;151.202;2023-02-11T05:50:45;29.50;99.90
25668;DHT22;18003;-33.830;151.202;2023-02-11T05:53:16;29.50;99.90
25668;DHT22;18003;-33.830;151.202;2023-02-11T05:55:46;29.60;99.90
25668;DHT22;18003;-33.830;151.202;2023-02-11T05:58:16;29.60;99.90
25668;DHT22;18003;-33.830;151.202;2023-02-11T06:00:45;29.50;99.90
25668;DHT22;18003;-33.830;151.202;2023-02-11T06:03:15;29.20;99.90
25668;DHT22;18003;-33.830;151.202;2023-02-11T06:05:46;29.30;99.90
25668;DHT22;18003;-33.830;151.202;2023-02-11T06:08:15;29.60;99.90
25668;DHT22;18003;-33.830;151.202;2023-02-11T06:10:46;29.60;99.90
25668;DHT22;18003;-33.830;151.202;2023-02-11T06:13:15;29.40;99.90
25668;DHT22;18003;-33.830;151.202;2023-02-11T06:15:57;29.00;99.90
25668;DHT22;18003;-33.830;151.202;2023-02-11T06:18:27;29.00;99.90
25668;DHT22;18003;-33.830;151.202;2023-02-11T06:20:57;29.20;99.90
25668;DHT22;18003;-33.830;151.202;2023-02-11T06:23:27;29.30;99.90
25668;DHT22;18003;-33.830;151.202;2023-02-11T06:26:02;29.10;99.90
25668;DHT22;18003;-33.830;151.202;2023-02-11T06:28:32;28.80;99.90
25668;DHT22;18003;-33.830;151.202;2023-02-11T06:31:06;29.10;99.90
25668;DHT22;18003;-33.830;151.202;2023-02-11T06:33:37;29.30;99.90
25668;DHT22;18003;-33.830;151.202;2023-02-11T06:36:14;29.40;99.90
25668;DHT22;18003;-33.830;151.202;2023-02-11T06:38:44;29.00;99.90
25668;DHT22;18003;-33.830;151.202;2023-02-11T06:41:16;28.90;99.90
25668;DHT22;18003;-33.830;151.202;2023-02-11T06:43:47;29.00;99.90
25668;DHT22;18003;-33.830;151.202;2023-02-11T06:46:17;29.20;99.90
25668;DHT22;18003;-33.830;151.202;2023-02-11T06:48:47;29.30;99.90
25668;DHT22;18003;-33.830;151.202;2023-02-11T06:51:18;28.90;99.90
25668;DHT22;18003;-33.830;151.202;2023-02-11T06:53:48;28.80;99.90
25668;DHT22;18003;-33.830;151.202;2023-02-11T06:56:19;29.10;99.90
25668;DHT22;18003;-33.830;151.202;2023-02-11T06:58:54;29.20;99.90
25668;DHT22;18003;-33.830;151.202;2023-02-11T07:01:24;29.30;99.90
25668;DHT22;18003;-33.830;151.202;2023-02-11T07:03:55;28.90;99.90
25668;DHT22;18003;-33.830;151.202;2023-02-11T07:06:26;28.90;99.90
25668;DHT22;18003;-33.830;151.202;2023-02-11T07:08:56;29.00;99.90
25668;DHT22;18003;-33.830;151.202;2023-02-11T07:11:27;29.30;99.90
25668;DHT22;18003;-33.830;151.202;2023-02-11T07:14:02;29.20;99.90
25668;DHT22;18003;-33.830;151.202;2023-02-11T07:16:32;28.80;99.90
25668;DHT22;18003;-33.830;151.202;2023-02-11T07:19:02;28.90;99.90
25668;DHT22;18003;-33.830;151.202;2023-02-11T07:21:32;29.10;99.90
25668;DHT22;18003;-33.830;151.202;2023-02-11T07:24:05;29.10;99.90
25668;DHT22;18003;-33.830;151.202;2023-02-11T07:26:33;28.90;99.90
25668;DHT22;18003;-33.830;151.202;2023-02-11T07:29:03;28.50;99.90
25668;DHT22;18003;-33.830;151.202;2023-02-11T07:31:33;28.70;99.90
25668;DHT22;18003;-33.830;151.202;2023-02-11T07:34:03;29.00;99.90
25668;DHT22;18003;-33.830;151.202;2023-02-11T07:36:34;28.90;99.90
25668;DHT22;18003;-33.830;151.202;2023-02-11T07:39:04;28.70;99.90
25668;DHT22;18003;-33.830;151.202;2023-02-11T07:41:34;28.50;99.90
25668;DHT22;18003;-33.830;151.202;2023-02-11T07:44:04;28.70;99.90
25668;DHT22;18003;-33.830;151.202;2023-02-11T07:46:35;29.00;99.90
25668;DHT22;18003;-33.830;151.202;2023-02-11T07:49:06;29.00;99.90
25668;DHT22;18003;-33.830;151.202;2023-02-11T07:51:36;28.70;99.90
25668;DHT22;18003;-33.830;151.202;2023-02-11T07:54:06;28.50;99.90
25668;DHT22;18003;-33.830;151.202;2023-02-11T07:56:36;28.60;99.90
25668;DHT22;18003;-33.830;151.202;2023-02-11T07:59:06;28.90;99.90
25668;DHT22;18003;-33.830;151.202;2023-02-11T08:01:36;28.80;99.90
25668;DHT22;18003;-33.830;151.202;2023-02-11T08:04:10;28.50;99.90
25668;DHT22;18003;-33.830;151.202;2023-02-11T08:06:56;28.30;99.90
25668;DHT22;18003;-33.830;151.202;2023-02-11T08:09:26;28.50;99.90
25668;DHT22;18003;-33.830;151.202;2023-02-11T08:11:56;28.70;99.90
25668;DHT22;18003;-33.830;151.202;2023-02-11T08:14:26;28.70;99.90
25668;DHT22;18003;-33.830;151.202;2023-02-11T08:16:56;28.30;99.90
25668;DHT22;18003;-33.830;151.202;2023-02-11T08:19:26;28.30;99.90
25668;DHT22;18003;-33.830;151.202;2023-02-11T08:21:56;28.50;99.90
25668;DHT22;18003;-33.830;151.202;2023-02-11T08:24:26;28.60;99.90
25668;DHT22;18003;-33.830;151.202;2023-02-11T08:26:56;28.50;99.90
25668;DHT22;18003;-33.830;151.202;2023-02-11T08:29:26;28.20;99.90
25668;DHT22;18003;-33.830;151.202;2023-02-11T08:31:56;28.30;99.90
25668;DHT22;18003;-33.830;151.202;2023-02-11T08:34:26;28.40;99.90
25668;DHT22;18003;-33.830;151.202;2023-02-11T08:36:56;28.50;99.90
25668;DHT22;18003;-33.830;151.202;2023-02-11T08:39:27;28.40;99.90
25668;DHT22;18003;-33.830;151.202;2023-02-11T08:41:57;28.10;99.90
25668;DHT22;18003;-33.830;151.202;2023-02-11T08:44:27;28.40;99.90
25668;DHT22;18003;-33.830;151.202;2023-02-11T08:46:57;28.50;99.90
25668;DHT22;18003;-33.830;151.202;2023-02-11T08:49:26;28.60;99.90
25668;DHT22;18003;-33.830;151.202;2023-02-11T08:51:58;28.50;99.90
25668;DHT22;18003;-33.830;151.202;2023-02-11T08:54:29;28.10;99.90
25668;DHT22;18003;-33.830;151.202;2023-02-11T08:56:59;28.30;99.90
25668;DHT22;18003;-33.830;151.202;2023-02-11T08:59:29;28.50;99.90
25668;DHT22;18003;-33.830;151.202;2023-02-11T09:01:59;28.40;99.90
25668;DHT22;18003;-33.830;151.202;2023-02-11T09:04:29;28.20;99.90
25668;DHT22;18003;-33.830;151.202;2023-02-11T09:06:59;28.00;99.90
25668;DHT22;18003;-33.830;151.202;2023-02-11T09:09:29;28.20;99.90
25668;DHT22;18003;-33.830;151.202;2023-02-11T09:12:00;28.40;99.90
25668;DHT22;18003;-33.830;151.202;2023-02-11T09:14:29;28.40;99.90
25668;DHT22;18003;-33.830;151.202;2023-02-11T09:17:00;28.20;99.90
25668;DHT22;18003;-33.830;151.202;2023-02-11T09:19:29;28.10;99.90
25668;DHT22;18003;-33.830;151.202;2023-02-11T09:22:00;28.20;99.90
25668;DHT22;18003;-33.830;151.202;2023-02-11T09:24:30;28.40;99.90
25668;DHT22;18003;-33.830;151.202;2023-02-11T09:27:00;28.50;99.90
25668;DHT22;18003;-33.830;151.202;2023-02-11T09:29:30;28.30;99.90
25668;DHT22;18003;-33.830;151.202;2023-02-11T09:32:00;28.20;99.90
25668;DHT22;18003;-33.830;151.202;2023-02-11T09:34:30;28.60;99.90
25668;DHT22;18003;-33.830;151.202;2023-02-11T09:37:00;28.70;99.90
25668;DHT22;18003;-33.830;151.202;2023-02-11T09:39:30;28.80;99.90
25668;DHT22;18003;-33.830;151.202;2023-02-11T09:44:37;28.50;99.90
25668;DHT22;18003;-33.830;151.202;2023-02-11T09:47:29;28.80;99.90
25668;DHT22;18003;-33.830;151.202;2023-02-11T09:50:01;28.90;99.90
25668;DHT22;18003;-33.830;151.202;2023-02-11T09:52:46;28.80;99.90
25668;DHT22;18003;-33.830;151.202;2023-02-11T09:55:17;28.60;99.90
25668;DHT22;18003;-33.830;151.202;2023-02-11T09:57:47;28.70;99.90
25668;DHT22;18003;-33.830;151.202;2023-02-11T10:00:27;28.90;99.90
25668;DHT22;18003;-33.830;151.202;2023-02-11T10:05:48;28.90;99.90
25668;DHT22;18003;-33.830;151.202;2023-02-11T10:11:30;28.80;99.90
25668;DHT22;18003;-33.830;151.202;2023-02-11T10:20:16;28.80;99.90
25668;DHT22;18003;-33.830;151.202;2023-02-11T10:22:58;28.90;99.90
25668;DHT22;18003;-33.830;151.202;2023-02-11T10:25:36;29.10;99.90
25668;DHT22;18003;-33.830;151.202;2023-02-11T10:28:17;29.20;99.90
25668;DHT22;18003;-33.830;151.202;2023-02-11T10:33:24;28.90;99.90
25668;DHT22;18003;-33.830;151.202;2023-02-11T10:35:53;29.20;99.90
25668;DHT22;18003;-33.830;151.202;2023-02-11T10:38:23;29.20;99.90
25668;DHT22;18003;-33.830;151.202;2023-02-11T10:40:53;29.30;99.90
25668;DHT22;18003;-33.830;151.202;2023-02-11T10:43:25;29.00;99.90
25668;DHT22;18003;-33.830;151.202;2023-02-11T10:45:56;29.00;99.90
25668;DHT22;18003;-33.830;151.202;2023-02-11T10:48:46;29.20;99.90
25668;DHT22;18003;-33.830;151.202;2023-02-11T10:51:22;29.30;99.90
25668;DHT22;18003;-33.830;151.202;2023-02-11T10:56:40;28.70;99.90
25668;DHT22;18003;-33.830;151.202;2023-02-11T10:59:30;28.90;99.90
25668;DHT22;18003;-33.830;151.202;2023-02-11T11:02:23;28.90;99.90
25668;DHT22;18003;-33.830;151.202;2023-02-11T11:04:56;28.90;99.90
25668;DHT22;18003;-33.830;151.202;2023-02-11T11:07:28;28.50;99.90
25668;DHT22;18003;-33.830;151.202;2023-02-11T11:10:06;28.30;99.90
25668;DHT22;18003;-33.830;151.202;2023-02-11T11:15:19;28.60;99.90
25668;DHT22;18003;-33.830;151.202;2023-02-11T11:17:51;28.60;99.90
25668;DHT22;18003;-33.830;151.202;2023-02-11T11:20:23;28.20;99.90
25668;DHT22;18003;-33.830;151.202;2023-02-11T11:23:15;28.30;99.90
25668;DHT22;18003;-33.830;151.202;2023-02-11T11:25:44;28.50;99.90
25668;DHT22;18003;-33.830;151.202;2023-02-11T11:28:22;28.50;99.90
25668;DHT22;18003;-33.830;151.202;2023-02-11T11:30:53;28.40;99.90
25668;DHT22;18003;-33.830;151.202;2023-02-11T11:33:28;28.10;99.90
25668;DHT22;18003;-33.830;151.202;2023-02-11T11:36:09;28.30;99.90
25668;DHT22;18003;-33.830;151.202;2023-02-11T11:38:48;28.40;99.90
25668;DHT22;18003;-33.830;151.202;2023-02-11T11:41:20;28.40;99.90
25668;DHT22;18003;-33.830;151.202;2023-02-11T11:44:16;28.20;99.90
25668;DHT22;18003;-33.830;151.202;2023-02-11T11:46:39;28.00;99.90
25668;DHT22;18003;-33.830;151.202;2023-02-11T11:52:10;28.40;99.90
25668;DHT22;18003;-33.830;151.202;2023-02-11T11:54:37;28.30;99.90
25668;DHT22;18003;-33.830;151.202;2023-02-11T11:57:11;27.80;99.90
25668;DHT22;18003;-33.830;151.202;2023-02-11T11:59:38;28.00;99.90
25668;DHT22;18003;-33.830;151.202;2023-02-11T12:02:34;28.30;99.90
25668;DHT22;18003;-33.830;151.202;2023-02-11T12:05:10;28.30;99.90
25668;DHT22;18003;-33.830;151.202;2023-02-11T12:16:02;28.20;99.90
25668;DHT22;18003;-33.830;151.202;2023-02-11T12:18:52;28.20;99.90
25668;DHT22;18003;-33.830;151.202;2023-02-11T12:27:13;28.10;99.90
25668;DHT22;18003;-33.830;151.202;2023-02-11T12:32:38;28.00;99.90
25668;DHT22;18003;-33.830;151.202;2023-02-11T12:35:21;27.80;99.90
25668;DHT22;18003;-33.830;151.202;2023-02-11T12:38:06;28.00;99.90
25668;DHT22;18003;-33.830;151.202;2023-02-11T12:40:56;28.20;99.90
25668;DHT22;18003;-33.830;151.202;2023-02-11T12:49:03;27.80;99.90
25668;DHT22;18003;-33.830;151.202;2023-02-11T13:02:46;27.10;99.90
25668;DHT22;18003;-33.830;151.202;2023-02-11T13:08:32;27.30;99.90
25668;DHT22;18003;-33.830;151.202;2023-02-11T13:10:53;27.20;99.90
25668;DHT22;18003;-33.830;151.202;2023-02-11T13:13:29;27.00;99.90
25668;DHT22;18003;-33.830;151.202;2023-02-11T13:16:02;26.90;99.90
25668;DHT22;18003;-33.830;151.202;2023-02-11T13:18:38;26.70;99.90
25668;DHT22;18003;-33.830;151.202;2023-02-11T13:24:05;26.60;99.90
25668;DHT22;18003;-33.830;151.202;2023-02-11T13:29:37;26.50;99.90
25668;DHT22;18003;-33.830;151.202;2023-02-11T13:32:09;26.50;99.90
25668;DHT22;18003;-33.830;151.202;2023-02-11T13:38:22;26.40;99.90
25668;DHT22;18003;-33.830;151.202;2023-02-11T13:40:04;26.40;99.90
25668;DHT22;18003;-33.830;151.202;2023-02-11T13:42:33;26.30;99.90
25668;DHT22;18003;-33.830;151.202;2023-02-11T13:45:15;26.30;99.90
25668;DHT22;18003;-33.830;151.202;2023-02-11T13:47:38;26.30;99.90
25668;DHT22;18003;-33.830;151.202;2023-02-11T13:50:19;26.20;99.90
25668;DHT22;18003;-33.830;151.202;2023-02-11T13:52:41;26.20;99.90
25668;DHT22;18003;-33.830;151.202;2023-02-11T13:55:21;26.20;99.90
25668;DHT22;18003;-33.830;151.202;2023-02-11T14:03:19;26.10;99.90
25668;DHT22;18003;-33.830;151.202;2023-02-11T14:06:14;26.00;99.90
25668;DHT22;18003;-33.830;151.202;2023-02-11T14:11:43;26.00;99.90
25668;DHT22;18003;-33.830;151.202;2023-02-11T14:14:23;26.00;99.90
25668;DHT22;18003;-33.830;151.202;2023-02-11T14:19:45;25.90;99.90
25668;DHT22;18003;-33.830;151.202;2023-02-11T14:22:26;25.90;99.90
25668;DHT22;18003;-33.830;151.202;2023-02-11T14:25:11;25.90;99.90
25668;DHT22;18003;-33.830;151.202;2023-02-11T14:27:54;25.90;99.90
25668;DHT22;18003;-33.830;151.202;2023-02-11T14:30:26;25.90;99.90
25668;DHT22;18003;-33.830;151.202;2023-02-11T14:33:07;25.80;99.90
25668;DHT22;18003;-33.830;151.202;2023-02-11T14:38:51;25.70;99.90
25668;DHT22;18003;-33.830;151.202;2023-02-11T14:41:26;25.70;99.90
25668;DHT22;18003;-33.830;151.202;2023-02-11T14:43:58;25.70;99.90
25668;DHT22;18003;-33.830;151.202;2023-02-11T14:46:29;25.70;99.90
25668;DHT22;18003;-33.830;151.202;2023-02-11T14:49:02;25.70;99.90
25668;DHT22;18003;-33.830;151.202;2023-02-11T14:51:34;25.70;99.90
25668;DHT22;18003;-33.830;151.202;2023-02-11T14:54:13;25.70;99.90
25668;DHT22;18003;-33.830;151.202;2023-02-11T14:56:44;25.60;99.90
25668;DHT22;18003;-33.830;151.202;2023-02-11T14:59:21;25.60;99.90
25668;DHT22;18003;-33.830;151.202;2023-02-11T15:01:52;25.50;99.90
25668;DHT22;18003;-33.830;151.202;2023-02-11T15:04:27;25.60;99.90
25668;DHT22;18003;-33.830;151.202;2023-02-11T15:07:02;25.50;99.90
25668;DHT22;18003;-33.830;151.202;2023-02-11T15:12:18;25.50;99.90
25668;DHT22;18003;-33.830;151.202;2023-02-11T15:14:49;25.50;99.90
25668;DHT22;18003;-33.830;151.202;2023-02-11T15:17:21;25.40;99.90
25668;DHT22;18003;-33.830;151.202;2023-02-11T15:19:53;25.40;99.90
25668;DHT22;18003;-33.830;151.202;2023-02-11T15:22:29;25.40;99.90
25668;DHT22;18003;-33.830;151.202;2023-02-11T15:25:00;25.40;99.90
25668;DHT22;18003;-33.830;151.202;2023-02-11T15:27:41;25.30;99.90
25668;DHT22;18003;-33.830;151.202;2023-02-11T15:30:29;25.30;99.90
25668;DHT22;18003;-33.830;151.202;2023-02-11T15:33:00;25.30;99.90
25668;DHT22;18003;-33.830;151.202;2023-02-11T15:35:32;25.20;99.90
25668;DHT22;18003;-33.830;151.202;2023-02-11T15:38:04;25.30;99.90
25668;DHT22;18003;-33.830;151.202;2023-02-11T15:40:35;25.20;99.90
25668;DHT22;18003;-33.830;151.202;2023-02-11T15:43:07;25.20;99.90
25668;DHT22;18003;-33.830;151.202;2023-02-11T15:45:41;25.20;99.90
25668;DHT22;18003;-33.830;151.202;2023-02-11T15:48:18;25.20;99.90
25668;DHT22;18003;-33.830;151.202;2023-02-11T15:50:59;25.10;99.90
25668;DHT22;18003;-33.830;151.202;2023-02-11T15:53:41;25.10;99.90
25668;DHT22;18003;-33.830;151.202;2023-02-11T15:56:14;25.10;99.90
25668;DHT22;18003;-33.830;151.202;2023-02-11T15:58:45;25.10;99.90
25668;DHT22;18003;-33.830;151.202;2023-02-11T16:01:16;25.10;99.90
25668;DHT22;18003;-33.830;151.202;2023-02-11T16:03:48;25.10;99.90
25668;DHT22;18003;-33.830;151.202;2023-02-11T16:06:40;25.10;99.90
25668;DHT22;18003;-33.830;151.202;2023-02-11T16:14:33;25.00;99.90
25668;DHT22;18003;-33.830;151.202;2023-02-11T16:17:11;25.00;99.90
25668;DHT22;18003;-33.830;151.202;2023-02-11T16:19:43;25.00;99.90
25668;DHT22;18003;-33.830;151.202;2023-02-11T16:22:19;25.00;99.90
25668;DHT22;18003;-33.830;151.202;2023-02-11T16:24:49;25.00;99.90
25668;DHT22;18003;-33.830;151.202;2023-02-11T16:27:27;25.00;99.90
25668;DHT22;18003;-33.830;151.202;2023-02-11T16:29:49;25.00;99.90
25668;DHT22;18003;-33.830;151.202;2023-02-11T16:32:22;25.00;99.90
25668;DHT22;18003;-33.830;151.202;2023-02-11T16:34:53;24.90;99.90
25668;DHT22;18003;-33.830;151.202;2023-02-11T16:37:23;24.90;99.90
25668;DHT22;18003;-33.830;151.202;2023-02-11T16:39:57;24.90;99.90
25668;DHT22;18003;-33.830;151.202;2023-02-11T16:42:27;24.90;99.90
25668;DHT22;18003;-33.830;151.202;2023-02-11T16:44:57;25.00;99.90
25668;DHT22;18003;-33.830;151.202;2023-02-11T16:47:27;25.10;99.90
25668;DHT22;18003;-33.830;151.202;2023-02-11T16:49:58;25.20;99.90
25668;DHT22;18003;-33.830;151.202;2023-02-11T16:52:29;25.20;99.90
25668;DHT22;18003;-33.830;151.202;2023-02-11T16:54:59;25.20;99.90
25668;DHT22;18003;-33.830;151.202;2023-02-11T16:57:30;25.30;99.90
25668;DHT22;18003;-33.830;151.202;2023-02-11T17:00:00;25.30;99.90
25668;DHT22;18003;-33.830;151.202;2023-02-11T17:02:32;25.20;99.90
25668;DHT22;18003;-33.830;151.202;2023-02-11T17:05:03;25.10;99.90
25668;DHT22;18003;-33.830;151.202;2023-02-11T17:07:34;24.90;99.90
25668;DHT22;18003;-33.830;151.202;2023-02-11T17:10:12;24.90;99.90
25668;DHT22;18003;-33.830;151.202;2023-02-11T17:12:36;24.80;99.90
25668;DHT22;18003;-33.830;151.202;2023-02-11T17:15:06;24.80;99.90
25668;DHT22;18003;-33.830;151.202;2023-02-11T17:17:36;24.80;99.90
25668;DHT22;18003;-33.830;151.202;2023-02-11T17:20:09;24.80;99.90
25668;DHT22;18003;-33.830;151.202;2023-02-11T17:22:36;24.70;99.90
25668;DHT22;18003;-33.830;151.202;2023-02-11T17:25:07;24.70;99.90
25668;DHT22;18003;-33.830;151.202;2023-02-11T17:27:37;24.70;99.90
25668;DHT22;18003;-33.830;151.202;2023-02-11T17:30:08;24.70;99.90